createdAt,value
2022-12-17T00:00:54.633Z,98887.22
2022-12-17T00:03:18.244Z,98891.72
2022-12-17T00:05:38.754Z,98891.13
2022-12-17T00:07:59.637Z,98895.47
2022-12-17T00:10:20.194Z,98888.28
2022-12-17T00:12:41.107Z,98888.88
2022-12-17T00:15:01.844Z,98894.53
2022-12-17T00:17:22.527Z,98892.03
2022-12-17T00:19:45.153Z,98896.63
2022-12-17T00:22:05.930Z,98880.81
2022-12-17T00:24:26.876Z,98876.97
2022-12-17T00:26:47.957Z,98876.09
2022-12-17T00:32:11.726Z,98846.84
2022-12-17T00:34:32.591Z,98849.03
2022-12-17T00:36:53.617Z,98868.69
2022-12-17T00:39:16.299Z,98872.84
2022-12-17T00:41:36.854Z,98871.31
2022-12-17T00:43:57.536Z,98868.22
2022-12-17T00:46:21.156Z,98871.13
2022-12-17T00:48:41.614Z,98857.44
2022-12-17T00:51:16.233Z,98855.03
2022-12-17T00:53:37.339Z,98872.84
2022-12-17T00:56:01.825Z,98863.28
2022-12-17T00:58:26.025Z,98852.00
2022-12-17T01:00:47.407Z,98844.81
2022-12-17T01:03:07.983Z,98850.38
2022-12-17T01:05:32.749Z,98859.06
2022-12-17T01:07:53.107Z,98856.88
2022-12-17T01:10:16.923Z,98860.53
2022-12-17T01:12:37.661Z,98856.09
2022-12-17T01:14:58.280Z,98856.09
2022-12-17T01:17:18.817Z,98844.50
2022-12-17T01:19:42.262Z,98850.22
2022-12-17T01:22:05.347Z,98849.88
2022-12-17T01:24:27.024Z,98838.75
2022-12-17T01:26:47.691Z,98821.63
2022-12-17T01:29:08.299Z,98832.63
2022-12-17T01:31:34.601Z,98838.94
2022-12-17T01:33:55.762Z,98836.16
2022-12-17T01:36:25.367Z,98836.75
2022-12-17T01:38:46.187Z,98836.84
2022-12-17T01:41:12.815Z,98836.16
2022-12-17T01:43:49.399Z,98838.69
2022-12-17T01:46:10.946Z,98834.72
2022-12-17T01:48:35.350Z,98848.59
2022-12-17T01:51:01.261Z,98845.13
2022-12-17T01:53:24.801Z,98846.78
2022-12-17T01:55:48.478Z,98855.44
2022-12-17T01:58:09.610Z,98860.66
2022-12-17T02:00:34.394Z,98873.09
2022-12-17T02:02:56.739Z,98881.97
2022-12-17T02:05:17.423Z,98879.56
2022-12-17T02:07:47.258Z,98879.25
2022-12-17T02:10:18.865Z,98874.22
2022-12-17T02:12:49.646Z,98870.47
2022-12-17T02:15:37.428Z,98861.78
2022-12-17T02:18:32.426Z,98849.44
2022-12-17T02:21:00.933Z,98853.50
2022-12-17T02:23:43.413Z,98846.75
2022-12-17T02:26:20.093Z,98829.13
2022-12-17T02:28:44.125Z,98824.19
2022-12-17T02:31:05.144Z,98828.28
2022-12-17T02:33:28.104Z,98819.00
2022-12-17T02:35:54.064Z,98817.28
2022-12-17T02:38:17.518Z,98819.84
2022-12-17T02:40:40.334Z,98827.78
2022-12-17T02:43:03.407Z,98830.88
2022-12-17T02:45:26.745Z,98828.25
2022-12-17T02:47:48.867Z,98845.50
2022-12-17T02:50:10.836Z,98836.28
2022-12-17T02:52:35.154Z,98828.38
2022-12-17T02:54:55.880Z,98814.56
2022-12-17T02:57:17.088Z,98813.63
2022-12-17T02:59:40.496Z,98814.75
2022-12-17T03:02:07.820Z,98821.03
2022-12-17T03:04:28.716Z,98822.28
2022-12-17T03:06:50.161Z,98819.13
2022-12-17T03:09:11.781Z,98825.72
2022-12-17T03:11:42.782Z,98819.41
2022-12-17T03:14:03.697Z,98818.03
2022-12-17T03:16:37.287Z,98807.78
2022-12-17T03:18:58.299Z,98816.66
2022-12-17T03:21:18.893Z,98812.13
2022-12-17T03:23:39.998Z,98811.38
2022-12-17T03:26:00.810Z,98814.44
2022-12-17T03:28:26.729Z,98810.97
2022-12-17T03:30:49.281Z,98812.44
2022-12-17T03:33:09.924Z,98816.94
2022-12-17T03:35:30.744Z,98818.09
2022-12-17T03:37:52.474Z,98819.84
2022-12-17T03:40:15.598Z,98808.25
2022-12-17T03:42:36.051Z,98815.50
2022-12-17T03:44:56.559Z,98813.66
2022-12-17T03:47:16.901Z,98803.84
2022-12-17T03:49:51.353Z,98813.84
2022-12-17T03:52:14.729Z,98812.59
2022-12-17T03:54:35.121Z,98809.63
2022-12-17T03:56:55.751Z,98805.28
2022-12-17T03:59:16.466Z,98810.69
2022-12-17T04:01:37.405Z,98811.84
2022-12-17T04:03:57.926Z,98809.16
2022-12-17T04:06:20.001Z,98808.47
2022-12-17T04:08:40.405Z,98810.97
2022-12-17T04:11:00.973Z,98816.47
2022-12-17T04:13:21.762Z,98824.84
2022-12-17T04:15:42.443Z,98834.56
2022-12-17T04:18:03.245Z,98853.38
2022-12-17T04:20:24.429Z,98857.28
2022-12-17T04:22:45.220Z,98859.91
2022-12-17T04:25:06.016Z,98859.81
2022-12-17T04:27:26.969Z,98872.94
2022-12-17T04:30:04.280Z,98870.41
2022-12-17T04:32:25.397Z,98875.22
2022-12-17T04:34:45.787Z,98875.69
2022-12-17T04:37:06.528Z,98883.81
2022-12-17T04:39:26.919Z,98877.66
2022-12-17T04:41:47.698Z,98879.56
2022-12-17T04:44:08.375Z,98868.84
2022-12-17T04:46:29.297Z,98881.41
2022-12-17T04:48:53.165Z,98879.47
2022-12-17T04:51:30.703Z,98877.81
2022-12-17T04:53:51.662Z,98891.72
2022-12-17T04:56:15.570Z,98916.09
2022-12-17T04:58:39.256Z,98906.44
2022-12-17T05:01:01.870Z,98920.03
2022-12-17T05:03:31.077Z,98927.97
2022-12-17T05:05:51.943Z,98927.78
2022-12-17T05:08:14.088Z,98921.88
2022-12-17T05:10:34.950Z,98926.59
2022-12-17T05:12:55.917Z,98933.03
2022-12-17T05:15:16.630Z,98935.03
2022-12-17T05:17:37.095Z,98934.84
2022-12-17T05:19:57.684Z,98926.94
2022-12-17T05:22:18.581Z,98936.22
2022-12-17T05:24:38.997Z,98938.25
2022-12-17T05:26:59.616Z,98927.53
2022-12-17T05:29:20.183Z,98938.59
2022-12-17T05:31:41.058Z,98931.72
2022-12-17T05:34:01.637Z,98935.31
2022-12-17T05:36:22.923Z,98931.63
2022-12-17T05:38:43.612Z,98929.91
2022-12-17T05:41:07.166Z,98923.56
2022-12-17T05:43:31.601Z,98935.38
2022-12-17T05:45:52.921Z,98922.69
2022-12-17T05:48:16.813Z,98928.34
2022-12-17T05:50:37.623Z,98928.06
2022-12-17T05:52:58.313Z,98929.91
2022-12-17T05:55:19.089Z,98938.13
2022-12-17T05:57:40.133Z,98937.47
2022-12-17T06:00:00.788Z,98937.53
2022-12-17T06:02:21.295Z,98943.81
2022-12-17T06:04:41.784Z,98952.94
2022-12-17T06:07:05.354Z,98953.00
2022-12-17T06:09:28.978Z,98961.16
2022-12-17T06:11:49.424Z,98966.72
2022-12-17T06:14:09.972Z,98972.13
2022-12-17T06:16:30.885Z,98985.69
2022-12-17T06:18:51.643Z,99000.97
2022-12-17T06:21:12.620Z,99006.47
2022-12-17T06:23:33.306Z,99019.38
2022-12-17T06:25:54.323Z,99017.19
2022-12-17T06:28:19.635Z,99014.19
2022-12-17T06:30:42.659Z,99018.38
2022-12-17T06:33:03.625Z,99029.16
2022-12-17T06:35:24.889Z,99026.63
2022-12-17T06:37:47.995Z,99027.75
2022-12-17T06:40:08.779Z,99028.63
2022-12-17T06:42:29.475Z,99033.13
2022-12-17T06:44:50.651Z,99046.50
2022-12-17T06:47:11.120Z,99056.59
2022-12-17T06:49:33.027Z,99060.47
2022-12-17T06:51:53.523Z,99068.53
2022-12-17T06:54:14.241Z,99068.63
2022-12-17T06:56:34.738Z,99073.31
2022-12-17T06:58:55.609Z,99081.44
2022-12-17T07:01:16.437Z,99087.69
2022-12-17T07:03:37.505Z,99099.44
2022-12-17T07:05:59.137Z,99096.09
2022-12-17T07:08:19.735Z,99092.78
2022-12-17T07:10:40.147Z,99105.38
2022-12-17T07:13:01.545Z,99108.06
2022-12-17T07:15:22.097Z,99118.88
2022-12-17T07:17:43.047Z,99119.69
2022-12-17T07:20:03.860Z,99123.56
2022-12-17T07:22:24.860Z,99144.06
2022-12-17T07:24:45.367Z,99143.34
2022-12-17T07:27:06.246Z,99153.25
2022-12-17T07:29:27.143Z,99151.53
2022-12-17T07:31:50.640Z,99159.84
2022-12-17T07:34:11.426Z,99166.09
2022-12-17T07:36:35.528Z,99168.78
2022-12-17T07:38:56.303Z,99165.31
2022-12-17T07:41:18.159Z,99171.63
2022-12-17T07:43:39.332Z,99181.47
2022-12-17T07:46:00.561Z,99184.22
2022-12-17T07:48:24.301Z,99197.97
2022-12-17T07:50:44.915Z,99206.03
2022-12-17T07:53:05.611Z,99210.56
2022-12-17T07:55:27.103Z,99218.84
2022-12-17T07:58:31.248Z,99227.28
2022-12-17T08:00:54.479Z,99236.53
2022-12-17T08:03:16.636Z,99245.72
2022-12-17T08:05:36.927Z,99239.78
2022-12-17T08:07:57.494Z,99253.22
2022-12-17T08:10:17.946Z,99253.94
2022-12-17T08:12:41.966Z,99262.09
2022-12-17T08:15:05.914Z,99275.00
2022-12-17T08:17:26.687Z,99275.16
2022-12-17T08:19:47.398Z,99278.66
2022-12-17T08:22:10.380Z,99286.41
2022-12-17T08:24:31.281Z,99287.41
2022-12-17T08:26:51.797Z,99293.78
2022-12-17T08:29:12.536Z,99298.22
2022-12-17T08:31:33.282Z,99298.44
2022-12-17T08:33:53.834Z,99302.47
2022-12-17T08:36:15.667Z,99312.56
2022-12-17T08:38:36.289Z,99304.41
2022-12-17T08:40:57.054Z,99323.19
2022-12-17T08:43:17.909Z,99316.25
2022-12-17T08:45:38.484Z,99331.72
2022-12-17T08:48:03.627Z,99332.44
2022-12-17T08:50:25.815Z,99338.78
2022-12-17T08:52:48.198Z,99344.25
2022-12-17T08:55:08.726Z,99345.53
2022-12-17T08:57:32.735Z,99348.16
2022-12-17T08:59:54.086Z,99354.59
2022-12-17T09:02:15.178Z,99352.91
2022-12-17T09:04:36.222Z,99363.78
2022-12-17T09:06:56.939Z,99368.16
2022-12-17T09:09:17.415Z,99370.84
2022-12-17T09:11:38.187Z,99376.34
2022-12-17T09:13:58.858Z,99386.41
2022-12-17T09:16:19.580Z,99391.09
2022-12-17T09:18:41.379Z,99392.00
2022-12-17T09:21:02.037Z,99398.47
2022-12-17T09:23:22.675Z,99398.47
2022-12-17T09:25:43.511Z,99408.66
2022-12-17T09:28:04.830Z,99410.69
2022-12-17T09:30:26.198Z,99416.88
2022-12-17T09:32:47.220Z,99421.25
2022-12-17T09:35:07.821Z,99417.06
2022-12-17T09:37:30.865Z,99426.84
2022-12-17T09:39:51.231Z,99429.38
2022-12-17T09:42:24.377Z,99435.97
2022-12-17T09:44:44.669Z,99441.97
2022-12-17T09:47:16.216Z,99448.53
2022-12-17T09:49:43.210Z,99453.91
2022-12-17T09:52:04.232Z,99453.00
2022-12-17T09:54:30.444Z,99453.25
2022-12-17T09:56:52.641Z,99458.59
2022-12-17T09:59:13.608Z,99475.59
2022-12-17T10:01:48.227Z,99480.94
2022-12-17T10:04:09.112Z,99483.00
2022-12-17T10:06:38.818Z,99484.91
2022-12-17T10:09:00.596Z,99486.56
2022-12-17T10:11:48.295Z,99500.09
2022-12-17T10:14:09.511Z,99494.63
2022-12-17T10:16:52.630Z,99488.53
2022-12-17T10:19:13.041Z,99490.28
2022-12-17T10:21:33.584Z,99500.16
2022-12-17T10:23:54.672Z,99509.03
2022-12-17T10:26:15.501Z,99518.91
2022-12-17T10:28:38.826Z,99539.59
2022-12-17T10:30:59.488Z,99539.56
2022-12-17T10:33:25.445Z,99536.91
2022-12-17T10:35:54.192Z,99539.88
2022-12-17T10:38:14.698Z,99546.91
2022-12-17T10:40:44.556Z,99548.63
2022-12-17T10:43:05.497Z,99553.28
2022-12-17T10:45:41.020Z,99561.31
2022-12-17T10:48:02.827Z,99564.69
2022-12-17T10:50:32.128Z,99566.72
2022-12-17T10:53:00.504Z,99569.19
2022-12-17T10:55:24.116Z,99581.91
2022-12-17T10:57:57.379Z,99586.66
2022-12-17T11:00:18.066Z,99573.94
2022-12-17T11:02:46.150Z,99586.66
2022-12-17T11:05:12.959Z,99597.31
2022-12-17T11:07:41.216Z,99605.50
2022-12-17T11:10:09.562Z,99598.31
2022-12-17T11:12:33.720Z,99613.56
2022-12-17T11:15:10.384Z,99614.66
2022-12-17T11:17:37.735Z,99624.59
2022-12-17T11:20:13.893Z,99621.25
2022-12-17T11:22:43.908Z,99626.63
2022-12-17T11:25:16.893Z,99639.88
2022-12-17T11:27:44.221Z,99637.03
2022-12-17T11:30:04.985Z,99631.50
2022-12-17T11:33:17.393Z,99641.91
2022-12-17T11:36:05.120Z,99642.00
2022-12-17T11:38:51.908Z,99644.63
2022-12-17T11:41:40.640Z,99645.66
2022-12-17T11:44:13.438Z,99644.88
2022-12-17T11:46:51.091Z,99657.41
2022-12-17T11:49:17.625Z,99666.53
2022-12-17T11:52:05.828Z,99665.59
2022-12-17T11:54:44.066Z,99672.06
2022-12-17T11:57:11.635Z,99671.03
2022-12-17T11:59:34.980Z,99670.81
2022-12-17T12:02:40.584Z,99674.53
2022-12-17T12:05:17.870Z,99671.66
2022-12-17T12:07:54.139Z,99684.38
2022-12-17T12:10:14.971Z,99684.28
2022-12-17T12:12:54.689Z,99683.38
2022-12-17T12:15:34.170Z,99696.19
2022-12-17T12:18:09.683Z,99698.25
2022-12-17T12:20:57.630Z,99706.78
2022-12-17T12:23:38.652Z,99705.69
2022-12-17T12:26:43.341Z,99715.56
2022-12-17T12:29:28.325Z,99725.56
2022-12-17T12:32:04.214Z,99720.28
2022-12-17T12:34:33.490Z,99712.16
2022-12-17T12:36:56.797Z,99711.91
2022-12-17T12:39:18.229Z,99718.16
2022-12-17T12:41:56.891Z,99720.31
2022-12-17T12:44:27.620Z,99717.34
2022-12-17T12:47:05.782Z,99718.47
2022-12-17T12:49:49.039Z,99727.34
2022-12-17T12:52:13.398Z,99733.44
2022-12-17T12:55:06.646Z,99743.56
2022-12-17T12:58:21.982Z,99750.75
2022-12-17T13:00:51.718Z,99750.66
2022-12-17T13:03:29.904Z,99766.66
2022-12-17T13:05:40.922Z,99784.69
2022-12-17T13:07:44.710Z,99781.13
2022-12-17T13:09:52.904Z,99782.81
2022-12-17T13:12:00.967Z,99783.88
2022-12-17T13:14:13.290Z,99791.75
2022-12-17T13:16:52.554Z,99798.28
2022-12-17T13:19:02.411Z,99806.88
2022-12-17T13:21:16.718Z,99807.06
2022-12-17T13:23:36.601Z,99818.66
2022-12-17T13:25:38.996Z,99826.72
2022-12-17T13:27:41.891Z,99827.53
2022-12-17T13:29:44.242Z,99830.44
2022-12-17T13:32:04.058Z,99842.19
2022-12-17T13:34:31.119Z,99850.97
2022-12-17T13:36:38.818Z,99847.59
2022-12-17T13:38:46.963Z,99854.84
2022-12-17T13:41:10.420Z,99867.41
2022-12-17T13:43:25.158Z,99862.06
2022-12-17T13:45:28.447Z,99865.59
2022-12-17T13:47:34.697Z,99855.66
2022-12-17T13:49:37.407Z,99859.28
2022-12-17T13:51:39.528Z,99853.13
2022-12-17T13:53:55.269Z,99871.16
2022-12-17T13:56:00.539Z,99887.09
2022-12-17T13:58:02.765Z,99886.28
2022-12-17T14:00:06.014Z,99895.50
2022-12-17T14:02:26.268Z,99910.34
2022-12-17T14:04:30.341Z,99917.31
2022-12-17T14:06:39.116Z,99915.88
2022-12-17T14:08:42.203Z,99921.94
2022-12-17T14:10:53.202Z,99910.34
2022-12-17T14:13:12.809Z,99931.03
2022-12-17T14:15:26.958Z,99931.78
2022-12-17T14:17:44.537Z,99921.25
2022-12-17T14:19:58.413Z,99925.16
2022-12-17T14:22:01.613Z,99941.22
2022-12-17T14:24:05.165Z,99935.13
2022-12-17T14:26:11.328Z,99942.34
2022-12-17T14:28:22.461Z,99939.81
2022-12-17T14:30:36.021Z,99950.72
2022-12-17T14:32:48.769Z,99963.16
2022-12-17T14:34:52.717Z,99966.63
2022-12-17T14:37:00.342Z,99983.50
2022-12-17T14:39:11.349Z,99980.78
2022-12-17T14:41:33.692Z,99988.75
2022-12-17T14:43:36.134Z,99990.56
2022-12-17T14:45:58.370Z,99997.66
2022-12-17T14:48:04.403Z,100001.25
2022-12-17T14:50:13.114Z,99998.75
2022-12-17T14:52:23.140Z,99991.72
2022-12-17T14:54:29.344Z,99998.81
2022-12-17T14:56:31.626Z,100000.59
2022-12-17T14:58:33.713Z,100006.84
2022-12-17T15:00:40.333Z,100014.00
2022-12-17T15:06:22.640Z,100026.59
2022-12-17T15:08:25.067Z,100036.19
2022-12-17T15:10:27.103Z,100036.22
2022-12-17T15:12:29.241Z,100042.47
2022-12-17T15:14:34.337Z,100045.06
2022-12-17T15:16:36.621Z,100048.66
2022-12-17T15:18:39.317Z,100043.59
2022-12-17T15:20:41.820Z,100056.94
2022-12-17T15:22:44.319Z,100065.97
2022-12-17T15:24:46.644Z,100059.69
2022-12-17T15:26:49.157Z,100062.44
2022-12-17T15:28:53.997Z,100067.78
2022-12-17T15:30:58.680Z,100071.34
2022-12-17T15:33:00.889Z,100082.97
2022-12-17T15:35:02.985Z,100088.25
2022-12-17T15:37:05.090Z,100091.88
2022-12-17T15:39:07.616Z,100095.28
2022-12-17T15:41:29.887Z,100101.63
2022-12-17T15:43:32.201Z,100101.53
2022-12-17T15:45:44.909Z,100105.03
2022-12-17T15:47:47.063Z,100103.16
2022-12-17T15:49:49.194Z,100099.66
2022-12-17T15:51:51.426Z,100105.03
2022-12-17T15:53:53.414Z,100105.03
2022-12-17T15:56:02.865Z,100103.38
2022-12-17T15:58:05.816Z,100108.63
2022-12-17T16:00:08.552Z,100110.53
2022-12-17T16:02:11.751Z,100117.63
2022-12-17T16:04:20.285Z,100112.34
2022-12-17T16:06:26.593Z,100119.50
2022-12-17T16:08:28.971Z,100120.44
2022-12-17T16:10:31.281Z,100122.19
2022-12-17T16:12:33.670Z,100120.28
2022-12-17T16:14:35.748Z,100127.38
2022-12-17T16:16:38.540Z,100131.81
2022-12-17T16:18:41.106Z,100139.03
2022-12-17T16:20:43.500Z,100141.72
2022-12-17T16:22:45.644Z,100140.84
2022-12-17T16:24:52.769Z,100148.13
2022-12-17T16:26:56.254Z,100145.47
2022-12-17T16:29:01.573Z,100148.16
2022-12-17T16:31:06.676Z,100150.03
2022-12-17T16:33:09.035Z,100147.28
2022-12-17T16:35:11.326Z,100158.78
2022-12-17T16:37:16.379Z,100154.47
2022-12-17T16:39:20.032Z,100160.00
2022-12-17T16:41:23.029Z,100154.50
2022-12-17T16:43:29.512Z,100160.81
2022-12-17T16:45:32.277Z,100159.00
2022-12-17T16:47:34.721Z,100159.00
2022-12-17T16:49:37.157Z,100163.63
2022-12-17T16:51:40.283Z,100169.91
2022-12-17T16:53:42.560Z,100166.28
2022-12-17T16:55:48.970Z,100167.09
2022-12-17T16:57:51.096Z,100168.03
2022-12-17T16:59:53.371Z,100170.66
2022-12-17T17:01:57.580Z,100170.63
2022-12-17T17:04:00.060Z,100180.47
2022-12-17T17:06:04.620Z,100194.75
2022-12-17T17:08:07.300Z,100191.19
2022-12-17T17:10:09.675Z,100196.53
2022-12-17T17:12:14.619Z,100202.91
2022-12-17T17:14:16.965Z,100204.75
2022-12-17T17:16:21.218Z,100202.06
2022-12-17T17:18:24.914Z,100206.63
2022-12-17T17:20:32.633Z,100213.66
2022-12-17T17:22:34.856Z,100220.88
2022-12-17T17:24:36.885Z,100220.94
2022-12-17T17:26:39.982Z,100235.25
2022-12-17T17:28:42.848Z,100232.75
2022-12-17T17:30:44.972Z,100229.22
2022-12-17T17:32:47.168Z,100245.25
2022-12-17T17:34:49.514Z,100252.41
2022-12-17T17:36:51.616Z,100249.78
2022-12-17T17:38:55.730Z,100264.09
2022-12-17T17:40:58.412Z,100262.34
2022-12-17T17:43:00.630Z,100262.34
2022-12-17T17:45:03.550Z,100264.97
2022-12-17T17:47:05.711Z,100265.91
2022-12-17T17:49:09.049Z,100279.38
2022-12-17T17:51:29.488Z,100276.75
2022-12-17T17:53:42.498Z,100279.38
2022-12-17T17:55:44.461Z,100273.03
2022-12-17T17:57:46.576Z,100267.75
2022-12-17T17:59:48.798Z,100280.19
2022-12-17T18:01:52.173Z,100287.34
2022-12-17T18:03:59.623Z,100291.81
2022-12-17T18:06:07.423Z,100294.50
2022-12-17T18:08:10.725Z,100290.94
2022-12-17T18:10:12.805Z,100295.41
2022-12-17T18:12:33.669Z,100299.84
2022-12-17T18:14:41.799Z,100304.25
2022-12-17T18:16:46.867Z,100307.03
2022-12-17T18:18:50.048Z,100314.13
2022-12-17T18:21:06.202Z,100308.78
2022-12-17T18:23:08.755Z,100309.69
2022-12-17T18:25:10.940Z,100314.19
2022-12-17T18:27:12.832Z,100321.22
2022-12-17T18:29:18.142Z,100329.28
2022-12-17T18:31:23.477Z,100329.34
2022-12-17T18:33:25.672Z,100330.28
2022-12-17T18:35:33.696Z,100336.50
2022-12-17T18:37:37.031Z,100348.88
2022-12-17T18:39:39.520Z,100355.16
2022-12-17T18:42:01.702Z,100354.34
2022-12-17T18:44:06.391Z,100354.44
2022-12-17T18:46:10.962Z,100359.78
2022-12-17T18:48:13.061Z,100367.72
2022-12-17T18:50:15.733Z,100369.53
2022-12-17T18:52:17.993Z,100369.50
2022-12-17T18:54:25.673Z,100375.81
2022-12-17T18:56:59.914Z,100379.38
2022-12-17T18:58:57.527Z,100384.66
2022-12-17T19:00:59.788Z,100383.78
2022-12-17T19:03:04.574Z,100382.88
2022-12-17T19:05:06.951Z,100382.03
2022-12-17T19:07:09.749Z,100378.50
2022-12-17T19:09:34.482Z,100381.25
2022-12-17T19:11:41.921Z,100386.59
2022-12-17T19:13:46.680Z,100404.44
2022-12-17T19:15:48.663Z,100391.88
2022-12-17T19:17:51.278Z,100408.00
2022-12-17T19:19:53.317Z,100406.19
2022-12-17T19:21:56.089Z,100413.38
2022-12-17T19:24:01.562Z,100421.34
2022-12-17T19:26:22.068Z,100431.28
2022-12-17T19:28:24.213Z,100427.66
2022-12-17T19:30:28.290Z,100429.38
2022-12-17T19:32:30.501Z,100437.41
2022-12-17T19:34:35.258Z,100438.31
2022-12-17T19:36:40.021Z,100433.94
2022-12-17T19:38:43.278Z,100435.72
2022-12-17T19:40:52.478Z,100437.47
2022-12-17T19:42:56.184Z,100443.81
2022-12-17T19:44:58.353Z,100437.47
2022-12-17T19:47:01.604Z,100445.53
2022-12-17T19:49:04.764Z,100449.13
2022-12-17T19:51:09.414Z,100444.66
2022-12-17T19:53:11.577Z,100443.78
2022-12-17T19:55:13.749Z,100445.59
2022-12-17T19:57:15.838Z,100467.03
2022-12-17T19:59:20.379Z,100465.34
2022-12-17T20:01:26.133Z,100474.31
2022-12-17T20:03:28.793Z,100478.75
2022-12-17T20:05:31.834Z,100484.16
2022-12-17T20:07:34.118Z,100489.56
2022-12-17T20:09:36.436Z,100489.50
2022-12-17T20:11:39.170Z,100495.81
2022-12-17T20:13:46.094Z,100493.16
2022-12-17T20:16:02.721Z,100497.66
2022-12-17T20:18:05.063Z,100500.31
2022-12-17T20:20:07.790Z,100512.81
2022-12-17T20:22:10.151Z,100523.53
2022-12-17T20:24:12.856Z,100529.84
2022-12-17T20:26:15.521Z,100528.94
2022-12-17T20:28:17.612Z,100531.59
2022-12-17T20:30:21.486Z,100544.91
2022-12-17T20:32:25.131Z,100544.97
2022-12-17T20:34:27.580Z,100536.03
2022-12-17T20:36:30.164Z,100544.09
2022-12-17T20:38:33.039Z,100547.63
2022-12-17T20:40:40.116Z,100553.03
2022-12-17T20:42:42.078Z,100560.16
2022-12-17T20:44:55.711Z,100561.09
2022-12-17T20:47:24.017Z,100561.97
2022-12-17T20:49:26.176Z,100565.56
2022-12-17T20:51:29.503Z,100562.00
2022-12-17T20:53:31.569Z,100567.38
2022-12-17T20:55:33.787Z,100568.25
2022-12-17T20:57:35.844Z,100575.34
2022-12-17T20:59:37.930Z,100575.34
2022-12-17T21:01:40.613Z,100583.41
2022-12-17T21:03:46.226Z,100581.59
2022-12-17T21:05:49.266Z,100583.38
2022-12-17T21:07:52.727Z,100594.94
2022-12-17T21:09:55.141Z,100594.06
2022-12-17T21:11:57.363Z,100589.66
2022-12-17T21:14:07.779Z,100596.72
2022-12-17T21:16:19.414Z,100602.97
2022-12-17T21:18:21.756Z,100600.31
2022-12-17T21:20:25.491Z,100609.22
2022-12-17T21:22:28.088Z,100612.75
2022-12-17T21:24:30.593Z,100619.00
2022-12-17T21:26:37.993Z,100619.88
2022-12-17T21:28:45.497Z,100629.63
2022-12-17T21:30:48.089Z,100625.22
2022-12-17T21:32:50.592Z,100634.97
2022-12-17T21:34:52.900Z,100640.31
2022-12-17T21:36:55.199Z,100643.84
2022-12-17T21:38:58.539Z,100644.75
2022-12-17T21:41:09.244Z,100642.97
2022-12-17T21:43:11.929Z,100646.53
2022-12-17T21:45:14.124Z,100650.94
2022-12-17T21:47:16.439Z,100647.41
2022-12-17T21:49:18.666Z,100658.94
2022-12-17T21:51:22.260Z,100656.28
2022-12-17T21:53:24.846Z,100652.72
2022-12-17T21:55:27.452Z,100663.38
2022-12-17T21:57:30.747Z,100667.81
2022-12-17T21:59:32.652Z,100665.16
2022-12-17T22:01:35.016Z,100671.38
2022-12-17T22:03:37.049Z,100679.38
2022-12-17T22:05:39.283Z,100687.38
2022-12-17T22:07:47.343Z,100693.59
2022-12-17T22:10:44.743Z,100696.25
2022-12-17T22:12:35.610Z,100699.78
2022-12-17T22:14:38.014Z,100702.47
2022-12-17T22:16:52.368Z,100713.06
2022-12-17T22:18:54.608Z,100709.50
2022-12-17T22:21:01.092Z,100717.53
2022-12-17T22:23:05.073Z,100708.66
2022-12-17T22:25:12.184Z,100725.56
2022-12-17T22:27:14.764Z,100725.56
2022-12-17T22:29:36.938Z,100729.94
2022-12-17T22:31:58.368Z,100729.06
2022-12-17T22:35:13.063Z,100728.16
2022-12-17T22:37:11.395Z,100735.31
2022-12-17T22:40:42.373Z,100741.50
2022-12-17T22:44:38.394Z,100738.84
2022-12-17T22:44:46.301Z,100742.41
2022-12-17T22:45:59.921Z,100744.16
2022-12-17T22:48:02.389Z,100745.09
2022-12-17T22:50:04.862Z,100749.53
2022-12-17T22:52:08.123Z,100749.56
2022-12-17T22:54:12.811Z,100746.00
2022-12-17T22:56:23.469Z,100762.84
2022-12-17T22:58:37.788Z,100763.75
2022-12-17T23:00:40.525Z,100767.31
2022-12-17T23:02:42.958Z,100766.41
2022-12-17T23:04:45.211Z,100779.72
2022-12-17T23:06:47.409Z,100782.41
2022-12-17T23:08:49.884Z,100782.44
2022-12-17T23:10:52.175Z,100790.44
2022-12-17T23:12:55.533Z,100785.09
2022-12-17T23:14:57.731Z,100791.34
2022-12-17T23:16:59.796Z,100787.78
2022-12-17T23:19:02.989Z,100787.81
2022-12-17T23:21:09.961Z,100797.59
2022-12-17T23:23:12.404Z,100791.38
2022-12-17T23:25:15.760Z,100800.25
2022-12-17T23:27:18.032Z,100800.25
2022-12-17T23:29:20.137Z,100794.03
2022-12-17T23:31:22.501Z,100793.13
2022-12-17T23:33:24.412Z,100802.91
2022-12-17T23:35:28.988Z,100801.16
2022-12-17T23:37:38.140Z,100816.25
2022-12-17T23:39:42.432Z,100818.06
2022-12-17T23:41:44.513Z,100812.72
2022-12-17T23:43:47.379Z,100808.28
2022-12-17T23:45:49.579Z,100810.94
2022-12-17T23:47:52.321Z,100819.84
2022-12-17T23:49:54.537Z,100821.63
2022-12-17T23:51:56.756Z,100818.94
2022-12-17T23:53:59.320Z,100820.75
2022-12-17T23:56:06.856Z,100820.75
2022-12-17T23:58:08.934Z,100826.94
